Αρχική σελίδα
METAR-TAF:

METAR-TAF

Αεροδρόμια :

NWS Office

Pohnpei, Μικρονησία

γεωγραφικό πλάτος: 06-58N, γεωγραφικό μήκος: 158-13E, υψόμετρο: 39 μ

Παρών καιρός

Η αναφορά έγινε 34 λεπτά πριν, στις 12:50 UTC
Άνεμος 3 kt από Ν/NA
Θερμοκρασία 25°C
Υγρασία 94%
Πίεση 1011 hPa
Ορατότητα: 24.1 χλμ
Αρκετά νέφη σε ύψος 1800 πόδια, Σωρείτες καθέτου αναπτύξεως.
Νεφοσκεπής σε ύψος 13000 πόδια

METAR: PTTP 271250Z 16003KT 15SM BKN018TCU OVC130 25/24 A2984 RMK SHRAE05 TCU ALQDS SLP115 T02520248 402860240

Χρόνος: 00:24 (13:24 UTC)


TAF: λείπει

Μετεωρολογικές αναφορές και προγνώσεις για περισσότερα από 4000 αεροδρόμια (δελτία METAR και TAF).

Οι διαθέσιμοι σταθμοί απεικονίζονται στο χάρτη με κίτρινες και κόκκινες κουκκίδες.

Μετακινήστε το ποντίκι πάνω από τις κουκκίδες για να δείτε το όνομα του σταθμού.

Στη συνέχεια, κάντε κλικ για να δείτε τις μετεωρολογικές αναφορές και τις προγνώσεις καιρού.

Για να αλλάξετε το χάρτη: κάντε κλικ στα πράσινα κουμπιά με τον μαύρο σταυρό για να ζουμάρετε, στο πράσινο κουμπί με την παύλα για να αφαιρέσετε το ζουμ ή στα πράσινα βέλη για να αντιπαραβάλλετε χάρτες.


METAR-TAF: